Pagrindinis puslapis
METAR-TAF:

METAR-TAF

Oro uostai :

Belgradas, Serbija

platuma: 44-49N, ilguma: 020-17E, Aukštis: 96 m

Dabartinis oras

Ataskaita buvo paskelbta 11 minutes, ne 18:30 UTC
Vėjas 7 kt iš Vakarų/Šiaurės Vakarų
Temperatūra 12°C
Drėgmė 62%
Slėgis 1024 hPa
Matomumas 10 km arba daugiau
nėra debesų žemiau 1500 m ir nėra kamuolinių lietaus debesų

METAR: LYBE 191830Z 30007KT CAVOK 12/05 Q1024 NOSIG

Laikas: 20:41 (18:41 UTC)

Prognozė

Ataskaita buvo paskelbta 1 valandą ir 41 minutes, ne 17:00 UTC
Prognozė galioja nuo 19 metu 18 UTC su 20 metu 18 UTC
Vėjas 6 kt iš Vakarų
Matomumas 10 km arba daugiau
nėra debesų žemiau 1500 m ir nėra kamuolinių lietaus debesų

TAF: LYBE 191700Z 1918/2018 28006KT CAVOK TX18/2014Z TN06/2004Z

Orai ataskaitas ir orų prognozės (METAR, TAF).

turimą stotys yra geltonos ir raudonos taškus žemėlapyje.

Perkelti pele per norėdami pamatyti stoties vardą.

Tada spustelėkite, norėdami matyti oro stebėjimo ir prognozės.

Norėdami pakeisti žemėlapį: spustelėkite ant žalios mygtukų su juodo kryžiaus žemyn,; žalią mygtuką su brūkšneliu, jei norite nutolinti; arba žalių rodyklių gretimoms žemėlapius.


METAR-TAF: